Startpagina
METAR-TAF:

METAR-TAF

Vliegvelden :

Pemba, Mozambique

breedte: 12-59S, lengte: 040-32E, hoogte: 101 m

Actueel weer

Dit bericht is 1 uur en het 29 minuten geleden gemaakt, om 14:00 UTC
Wind 19 kt uit het zuidzuidoosten
Temperatuur 30°C
Vochtigheid 79%
Druk 1010 hPa
Zicht 10 km of meer
Weinig wolken op 3000 ft
Weinig wolken op 3000 ft, Cumulonimbus.

METAR: FQPB 051400Z 15019KT 9999 FEW030 FEW030CB 30/26 Q1010 RMK CB TO SW/NW

Tijdstip: 17:29 (15:29 UTC)

Verwachting

Dit bericht is 5 uur en het 29 minuten geleden gemaakt, om 10:00 UTC
Verwachting geldig van 05 om 12 UTC tot 06 om 12 UTC
Wind 12 kt uit het zuidoosten
Zicht 10 km of meer
Gebroken wolken op 2000 ft
Wijzigt naar
van 05 om 20 UTC tot 05 om 22 UTC
Wind 8 kt uit het zuidzuidwesten

TAF: FQPB 051000Z 0512/0612 14012KT 9999 BKN020 TX32/0513Z TN25/0603Z BECMG 0520/0522 20008KT

Waarnemingen en weersverwachtingen van meer dan 4000 vliegvelden (METAR en TAF).

De beschikbare stations zijn de gele en rode punten op de kaart.

Ga met uw muis naar het station om de naam te zien.

Klik dan om waarnemingen en weersverwachtingen te zien.

kaart wijzigen: klik op de groene knoppen met een zwart kruis om in te zoomen, op de groene knop met een streepje om uit te zoomen of op de groene pijlen voor aangrenzende kaarten.


METAR-TAF: